sensor_id;sensor_type;location;lat;lon;timestamp;temperature;humidity
57552;DHT22;43379;48.160;14.036;2023-06-19T00:01:18;20.40;96.60
57552;DHT22;43379;48.160;14.036;2023-06-19T00:03:44;20.40;96.50
57552;DHT22;43379;48.160;14.036;2023-06-19T00:06:10;20.50;96.70
57552;DHT22;43379;48.160;14.036;2023-06-19T00:08:37;20.50;96.40
57552;DHT22;43379;48.160;14.036;2023-06-19T00:11:03;20.40;96.60
57552;DHT22;43379;48.160;14.036;2023-06-19T00:13:29;20.40;96.80
57552;DHT22;43379;48.160;14.036;2023-06-19T00:15:55;20.40;97.10
57552;DHT22;43379;48.160;14.036;2023-06-19T00:18:26;20.30;97.20
57552;DHT22;43379;48.160;14.036;2023-06-19T00:20:51;20.30;97.40
57552;DHT22;43379;48.160;14.036;2023-06-19T00:23:18;20.20;97.70
57552;DHT22;43379;48.160;14.036;2023-06-19T00:25:44;20.10;97.90
57552;DHT22;43379;48.160;14.036;2023-06-19T00:28:10;20.10;98.20
57552;DHT22;43379;48.160;14.036;2023-06-19T00:30:39;20.10;98.20
57552;DHT22;43379;48.160;14.036;2023-06-19T00:33:05;20.10;98.50
57552;DHT22;43379;48.160;14.036;2023-06-19T00:35:31;20.00;98.30
57552;DHT22;43379;48.160;14.036;2023-06-19T00:37:56;20.00;98.00
57552;DHT22;43379;48.160;14.036;2023-06-19T00:40:30;19.90;97.80
57552;DHT22;43379;48.160;14.036;2023-06-19T00:42:56;19.90;97.90
57552;DHT22;43379;48.160;14.036;2023-06-19T00:45:23;19.90;97.90
57552;DHT22;43379;48.160;14.036;2023-06-19T00:47:55;19.90;97.80
57552;DHT22;43379;48.160;14.036;2023-06-19T00:50:24;19.90;98.00
57552;DHT22;43379;48.160;14.036;2023-06-19T00:52:50;19.90;98.00
57552;DHT22;43379;48.160;14.036;2023-06-19T00:55:16;19.80;98.00
57552;DHT22;43379;48.160;14.036;2023-06-19T00:57:43;19.80;98.20
57552;DHT22;43379;48.160;14.036;2023-06-19T01:00:10;19.80;98.30
57552;DHT22;43379;48.160;14.036;2023-06-19T01:02:38;19.80;98.50
57552;DHT22;43379;48.160;14.036;2023-06-19T01:05:04;19.80;98.80
57552;DHT22;43379;48.160;14.036;2023-06-19T01:10:24;19.80;98.90
57552;DHT22;43379;48.160;14.036;2023-06-19T01:13:00;19.70;99.00
57552;DHT22;43379;48.160;14.036;2023-06-19T01:15:27;19.60;99.00
57552;DHT22;43379;48.160;14.036;2023-06-19T01:17:55;19.60;98.90
57552;DHT22;43379;48.160;14.036;2023-06-19T01:20:21;19.60;98.60
57552;DHT22;43379;48.160;14.036;2023-06-19T01:22:47;19.60;98.80
57552;DHT22;43379;48.160;14.036;2023-06-19T01:25:13;19.50;98.30
57552;DHT22;43379;48.160;14.036;2023-06-19T01:27:41;19.60;98.80
57552;DHT22;43379;48.160;14.036;2023-06-19T01:30:10;19.50;98.60
57552;DHT22;43379;48.160;14.036;2023-06-19T01:33:04;19.40;98.90
57552;DHT22;43379;48.160;14.036;2023-06-19T01:35:35;19.40;99.20
57552;DHT22;43379;48.160;14.036;2023-06-19T01:38:01;19.30;99.50
57552;DHT22;43379;48.160;14.036;2023-06-19T01:40:28;19.20;99.60
57552;DHT22;43379;48.160;14.036;2023-06-19T01:42:58;19.20;99.80
57552;DHT22;43379;48.160;14.036;2023-06-19T01:45:27;19.20;99.90
57552;DHT22;43379;48.160;14.036;2023-06-19T01:47:53;19.20;99.90
57552;DHT22;43379;48.160;14.036;2023-06-19T01:50:21;19.10;99.90
57552;DHT22;43379;48.160;14.036;2023-06-19T01:52:46;19.10;99.90
57552;DHT22;43379;48.160;14.036;2023-06-19T01:55:13;19.10;99.90
57552;DHT22;43379;48.160;14.036;2023-06-19T01:57:39;19.10;99.90
57552;DHT22;43379;48.160;14.036;2023-06-19T02:00:05;19.10;99.90
57552;DHT22;43379;48.160;14.036;2023-06-19T02:02:33;19.10;99.90
57552;DHT22;43379;48.160;14.036;2023-06-19T02:04:59;19.00;99.90
57552;DHT22;43379;48.160;14.036;2023-06-19T02:07:25;19.00;99.90
57552;DHT22;43379;48.160;14.036;2023-06-19T02:09:50;18.90;99.90
57552;DHT22;43379;48.160;14.036;2023-06-19T02:12:16;19.00;99.90
57552;DHT22;43379;48.160;14.036;2023-06-19T02:14:41;19.00;99.90
57552;DHT22;43379;48.160;14.036;2023-06-19T02:17:07;18.90;99.90
57552;DHT22;43379;48.160;14.036;2023-06-19T02:19:33;18.90;99.90
57552;DHT22;43379;48.160;14.036;2023-06-19T02:21:58;18.90;99.90
57552;DHT22;43379;48.160;14.036;2023-06-19T02:24:24;18.90;99.90
57552;DHT22;43379;48.160;14.036;2023-06-19T02:26:50;19.00;99.90
57552;DHT22;43379;48.160;14.036;2023-06-19T02:29:16;18.90;99.90
57552;DHT22;43379;48.160;14.036;2023-06-19T02:31:41;18.90;99.90
57552;DHT22;43379;48.160;14.036;2023-06-19T02:34:08;18.80;99.90
57552;DHT22;43379;48.160;14.036;2023-06-19T02:36:34;18.80;99.90
57552;DHT22;43379;48.160;14.036;2023-06-19T02:39:01;18.80;99.90
57552;DHT22;43379;48.160;14.036;2023-06-19T02:41:27;18.70;99.90
57552;DHT22;43379;48.160;14.036;2023-06-19T02:43:52;18.70;99.90
57552;DHT22;43379;48.160;14.036;2023-06-19T02:46:18;18.60;99.90
57552;DHT22;43379;48.160;14.036;2023-06-19T02:48:44;18.50;99.90
57552;DHT22;43379;48.160;14.036;2023-06-19T02:51:09;18.50;99.90
57552;DHT22;43379;48.160;14.036;2023-06-19T02:53:35;18.50;99.90
57552;DHT22;43379;48.160;14.036;2023-06-19T02:56:00;18.50;99.90
57552;DHT22;43379;48.160;14.036;2023-06-19T02:58:26;18.40;99.90
57552;DHT22;43379;48.160;14.036;2023-06-19T03:00:52;18.40;99.90
57552;DHT22;43379;48.160;14.036;2023-06-19T03:03:18;18.40;99.90
57552;DHT22;43379;48.160;14.036;2023-06-19T03:05:44;18.40;99.90
57552;DHT22;43379;48.160;14.036;2023-06-19T03:08:10;18.40;99.90
57552;DHT22;43379;48.160;14.036;2023-06-19T03:10:36;18.40;99.90
57552;DHT22;43379;48.160;14.036;2023-06-19T03:13:01;18.40;99.90
57552;DHT22;43379;48.160;14.036;2023-06-19T03:15:27;18.40;99.90
57552;DHT22;43379;48.160;14.036;2023-06-19T03:17:53;18.40;99.90
57552;DHT22;43379;48.160;14.036;2023-06-19T03:20:19;18.30;99.90
57552;DHT22;43379;48.160;14.036;2023-06-19T03:22:46;18.30;99.90
57552;DHT22;43379;48.160;14.036;2023-06-19T03:25:12;18.30;99.90
57552;DHT22;43379;48.160;14.036;2023-06-19T03:27:37;18.30;99.90
57552;DHT22;43379;48.160;14.036;2023-06-19T03:30:04;18.20;99.90
57552;DHT22;43379;48.160;14.036;2023-06-19T03:32:34;18.20;99.90
57552;DHT22;43379;48.160;14.036;2023-06-19T03:35:00;18.20;99.90
57552;DHT22;43379;48.160;14.036;2023-06-19T03:37:26;18.20;99.90
57552;DHT22;43379;48.160;14.036;2023-06-19T03:39:52;18.20;99.90
57552;DHT22;43379;48.160;14.036;2023-06-19T03:42:17;18.20;99.90
57552;DHT22;43379;48.160;14.036;2023-06-19T03:44:43;18.30;99.90
57552;DHT22;43379;48.160;14.036;2023-06-19T03:47:09;18.30;99.90
57552;DHT22;43379;48.160;14.036;2023-06-19T03:49:34;18.30;99.90
57552;DHT22;43379;48.160;14.036;2023-06-19T03:52:00;18.30;99.90
57552;DHT22;43379;48.160;14.036;2023-06-19T03:54:26;18.30;99.90
57552;DHT22;43379;48.160;14.036;2023-06-19T03:56:52;18.40;99.90
57552;DHT22;43379;48.160;14.036;2023-06-19T03:59:17;18.50;99.90
57552;DHT22;43379;48.160;14.036;2023-06-19T04:01:43;18.50;99.90
57552;DHT22;43379;48.160;14.036;2023-06-19T04:04:09;18.60;99.90
57552;DHT22;43379;48.160;14.036;2023-06-19T04:06:34;18.70;99.90
57552;DHT22;43379;48.160;14.036;2023-06-19T04:09:00;18.60;99.90
57552;DHT22;43379;48.160;14.036;2023-06-19T04:11:26;18.70;99.90
57552;DHT22;43379;48.160;14.036;2023-06-19T04:13:51;18.80;99.90
57552;DHT22;43379;48.160;14.036;2023-06-19T04:16:17;18.70;99.90
57552;DHT22;43379;48.160;14.036;2023-06-19T04:18:43;18.80;99.90
57552;DHT22;43379;48.160;14.036;2023-06-19T04:21:08;18.90;99.90
57552;DHT22;43379;48.160;14.036;2023-06-19T04:23:34;18.90;99.90
57552;DHT22;43379;48.160;14.036;2023-06-19T04:26:00;18.90;99.90
57552;DHT22;43379;48.160;14.036;2023-06-19T04:28:25;19.00;99.90
57552;DHT22;43379;48.160;14.036;2023-06-19T04:30:52;19.20;99.90
57552;DHT22;43379;48.160;14.036;2023-06-19T04:33:28;19.20;99.90
57552;DHT22;43379;48.160;14.036;2023-06-19T04:35:57;19.30;99.90
57552;DHT22;43379;48.160;14.036;2023-06-19T04:38:23;19.30;99.90
57552;DHT22;43379;48.160;14.036;2023-06-19T04:40:50;19.40;99.90
57552;DHT22;43379;48.160;14.036;2023-06-19T04:43:16;19.40;99.90
57552;DHT22;43379;48.160;14.036;2023-06-19T04:45:42;19.50;99.90
57552;DHT22;43379;48.160;14.036;2023-06-19T04:48:08;19.60;99.90
57552;DHT22;43379;48.160;14.036;2023-06-19T04:50:34;19.70;99.90
57552;DHT22;43379;48.160;14.036;2023-06-19T04:52:59;19.70;99.90
57552;DHT22;43379;48.160;14.036;2023-06-19T04:55:25;19.70;99.90
57552;DHT22;43379;48.160;14.036;2023-06-19T04:57:51;19.90;99.90
57552;DHT22;43379;48.160;14.036;2023-06-19T05:00:17;20.00;99.90
57552;DHT22;43379;48.160;14.036;2023-06-19T05:02:45;20.10;99.90
57552;DHT22;43379;48.160;14.036;2023-06-19T05:05:13;20.10;99.90
57552;DHT22;43379;48.160;14.036;2023-06-19T05:07:39;20.20;99.90
57552;DHT22;43379;48.160;14.036;2023-06-19T05:10:05;20.30;99.90
57552;DHT22;43379;48.160;14.036;2023-06-19T05:12:31;20.40;99.90
57552;DHT22;43379;48.160;14.036;2023-06-19T05:14:57;20.50;99.80
57552;DHT22;43379;48.160;14.036;2023-06-19T05:17:23;20.60;99.90
57552;DHT22;43379;48.160;14.036;2023-06-19T05:19:48;20.60;99.60
57552;DHT22;43379;48.160;14.036;2023-06-19T05:22:15;20.80;99.70
57552;DHT22;43379;48.160;14.036;2023-06-19T05:24:40;20.90;99.60
57552;DHT22;43379;48.160;14.036;2023-06-19T05:27:06;21.00;99.30
57552;DHT22;43379;48.160;14.036;2023-06-19T05:29:32;21.10;99.50
57552;DHT22;43379;48.160;14.036;2023-06-19T05:31:58;21.10;99.60
57552;DHT22;43379;48.160;14.036;2023-06-19T05:34:23;21.30;99.30
57552;DHT22;43379;48.160;14.036;2023-06-19T05:36:49;21.20;99.20
57552;DHT22;43379;48.160;14.036;2023-06-19T05:39:14;21.20;99.40
57552;DHT22;43379;48.160;14.036;2023-06-19T05:41:40;21.20;99.80
57552;DHT22;43379;48.160;14.036;2023-06-19T05:44:06;21.40;99.60
57552;DHT22;43379;48.160;14.036;2023-06-19T05:46:31;21.30;99.60
57552;DHT22;43379;48.160;14.036;2023-06-19T05:48:57;21.40;99.50
57552;DHT22;43379;48.160;14.036;2023-06-19T05:51:23;21.60;99.50
57552;DHT22;43379;48.160;14.036;2023-06-19T05:53:48;21.80;99.20
57552;DHT22;43379;48.160;14.036;2023-06-19T05:56:15;22.00;99.30
57552;DHT22;43379;48.160;14.036;2023-06-19T05:58:41;22.30;99.60
57552;DHT22;43379;48.160;14.036;2023-06-19T06:01:07;22.70;98.70
57552;DHT22;43379;48.160;14.036;2023-06-19T06:03:33;22.80;98.20
57552;DHT22;43379;48.160;14.036;2023-06-19T06:05:58;22.90;98.20
57552;DHT22;43379;48.160;14.036;2023-06-19T06:08:31;23.20;98.20
57552;DHT22;43379;48.160;14.036;2023-06-19T06:10:57;23.10;97.60
57552;DHT22;43379;48.160;14.036;2023-06-19T06:13:23;23.20;96.90
57552;DHT22;43379;48.160;14.036;2023-06-19T06:15:50;23.20;97.10
57552;DHT22;43379;48.160;14.036;2023-06-19T06:18:16;23.20;97.00
57552;DHT22;43379;48.160;14.036;2023-06-19T06:20:41;23.10;96.50
57552;DHT22;43379;48.160;14.036;2023-06-19T06:23:07;23.10;96.40
57552;DHT22;43379;48.160;14.036;2023-06-19T06:25:33;23.00;96.60
57552;DHT22;43379;48.160;14.036;2023-06-19T06:27:58;22.90;96.80
57552;DHT22;43379;48.160;14.036;2023-06-19T06:30:24;22.90;97.00
57552;DHT22;43379;48.160;14.036;2023-06-19T06:32:50;23.00;97.00
57552;DHT22;43379;48.160;14.036;2023-06-19T06:35:16;23.10;96.80
57552;DHT22;43379;48.160;14.036;2023-06-19T06:37:42;23.30;96.60
57552;DHT22;43379;48.160;14.036;2023-06-19T06:40:09;23.30;96.20
57552;DHT22;43379;48.160;14.036;2023-06-19T06:42:36;23.40;96.20
57552;DHT22;43379;48.160;14.036;2023-06-19T06:45:07;23.40;96.10
57552;DHT22;43379;48.160;14.036;2023-06-19T06:47:36;23.30;96.20
57552;DHT22;43379;48.160;14.036;2023-06-19T06:50:02;23.20;96.10
57552;DHT22;43379;48.160;14.036;2023-06-19T06:52:28;23.20;96.20
57552;DHT22;43379;48.160;14.036;2023-06-19T06:54:55;23.30;96.10
57552;DHT22;43379;48.160;14.036;2023-06-19T06:57:21;23.30;95.80
57552;DHT22;43379;48.160;14.036;2023-06-19T06:59:47;23.20;96.20
57552;DHT22;43379;48.160;14.036;2023-06-19T07:02:12;23.10;96.20
57552;DHT22;43379;48.160;14.036;2023-06-19T07:04:38;23.20;96.50
57552;DHT22;43379;48.160;14.036;2023-06-19T07:07:04;23.00;96.80
57552;DHT22;43379;48.160;14.036;2023-06-19T07:09:31;22.90;97.00
57552;DHT22;43379;48.160;14.036;2023-06-19T07:11:57;22.90;97.00
57552;DHT22;43379;48.160;14.036;2023-06-19T07:14:23;22.80;97.00
57552;DHT22;43379;48.160;14.036;2023-06-19T07:16:49;22.70;97.30
57552;DHT22;43379;48.160;14.036;2023-06-19T07:19:15;22.60;97.50
57552;DHT22;43379;48.160;14.036;2023-06-19T07:21:41;22.60;97.50
57552;DHT22;43379;48.160;14.036;2023-06-19T07:24:07;22.60;98.00
57552;DHT22;43379;48.160;14.036;2023-06-19T07:26:33;22.60;97.70
57552;DHT22;43379;48.160;14.036;2023-06-19T07:28:59;22.60;98.00
57552;DHT22;43379;48.160;14.036;2023-06-19T07:31:25;22.50;98.50
57552;DHT22;43379;48.160;14.036;2023-06-19T07:33:50;22.50;99.60
57552;DHT22;43379;48.160;14.036;2023-06-19T07:36:16;22.50;99.90
57552;DHT22;43379;48.160;14.036;2023-06-19T07:38:45;22.50;99.90
57552;DHT22;43379;48.160;14.036;2023-06-19T07:41:11;22.50;99.90
57552;DHT22;43379;48.160;14.036;2023-06-19T07:43:39;22.50;99.90
57552;DHT22;43379;48.160;14.036;2023-06-19T07:46:05;22.60;99.90
57552;DHT22;43379;48.160;14.036;2023-06-19T07:48:31;22.60;99.90
57552;DHT22;43379;48.160;14.036;2023-06-19T07:50:57;22.70;99.90
57552;DHT22;43379;48.160;14.036;2023-06-19T07:53:23;22.60;99.90
57552;DHT22;43379;48.160;14.036;2023-06-19T07:55:48;22.60;99.90
57552;DHT22;43379;48.160;14.036;2023-06-19T07:58:14;22.60;99.90
57552;DHT22;43379;48.160;14.036;2023-06-19T08:00:40;22.80;99.80
57552;DHT22;43379;48.160;14.036;2023-06-19T08:03:05;22.70;99.90
57552;DHT22;43379;48.160;14.036;2023-06-19T08:05:31;22.80;99.90
57552;DHT22;43379;48.160;14.036;2023-06-19T08:07:58;22.90;99.80
57552;DHT22;43379;48.160;14.036;2023-06-19T08:10:24;23.10;99.90
57552;DHT22;43379;48.160;14.036;2023-06-19T08:12:50;23.10;99.90
57552;DHT22;43379;48.160;14.036;2023-06-19T08:15:15;23.20;99.90
57552;DHT22;43379;48.160;14.036;2023-06-19T08:17:41;23.50;99.90
57552;DHT22;43379;48.160;14.036;2023-06-19T08:20:08;23.80;99.90
57552;DHT22;43379;48.160;14.036;2023-06-19T08:22:34;24.20;99.10
57552;DHT22;43379;48.160;14.036;2023-06-19T08:24:59;24.50;99.10
57552;DHT22;43379;48.160;14.036;2023-06-19T08:27:25;24.60;97.50
57552;DHT22;43379;48.160;14.036;2023-06-19T08:29:51;24.90;96.90
57552;DHT22;43379;48.160;14.036;2023-06-19T08:32:17;25.00;96.00
57552;DHT22;43379;48.160;14.036;2023-06-19T08:34:42;25.00;96.10
57552;DHT22;43379;48.160;14.036;2023-06-19T08:37:08;25.40;95.90
57552;DHT22;43379;48.160;14.036;2023-06-19T08:39:34;25.80;96.00
57552;DHT22;43379;48.160;14.036;2023-06-19T08:42:05;26.20;96.00
57552;DHT22;43379;48.160;14.036;2023-06-19T08:44:31;26.60;96.50
57552;DHT22;43379;48.160;14.036;2023-06-19T08:46:58;27.20;96.60
57552;DHT22;43379;48.160;14.036;2023-06-19T08:49:24;27.50;95.80
57552;DHT22;43379;48.160;14.036;2023-06-19T08:51:49;27.70;95.00
57552;DHT22;43379;48.160;14.036;2023-06-19T08:54:15;27.70;94.90
57552;DHT22;43379;48.160;14.036;2023-06-19T08:56:41;27.50;94.40
57552;DHT22;43379;48.160;14.036;2023-06-19T08:59:17;27.70;94.30
57552;DHT22;43379;48.160;14.036;2023-06-19T09:01:53;28.00;94.70
57552;DHT22;43379;48.160;14.036;2023-06-19T09:04:24;28.20;92.60
57552;DHT22;43379;48.160;14.036;2023-06-19T09:09:20;28.60;92.50
57552;DHT22;43379;48.160;14.036;2023-06-19T09:12:04;28.80;92.30
57552;DHT22;43379;48.160;14.036;2023-06-19T09:14:40;29.00;90.70
57552;DHT22;43379;48.160;14.036;2023-06-19T09:17:10;29.20;91.40
57552;DHT22;43379;48.160;14.036;2023-06-19T09:19:36;29.20;88.20
57552;DHT22;43379;48.160;14.036;2023-06-19T09:22:08;29.20;87.70
57552;DHT22;43379;48.160;14.036;2023-06-19T09:24:38;29.30;85.70
57552;DHT22;43379;48.160;14.036;2023-06-19T09:27:09;29.20;84.80
57552;DHT22;43379;48.160;14.036;2023-06-19T09:29:40;29.20;85.50
57552;DHT22;43379;48.160;14.036;2023-06-19T09:32:23;29.20;83.80
57552;DHT22;43379;48.160;14.036;2023-06-19T09:34:50;29.10;84.00
57552;DHT22;43379;48.160;14.036;2023-06-19T09:37:23;29.10;84.10
57552;DHT22;43379;48.160;14.036;2023-06-19T09:40:01;29.00;83.90
57552;DHT22;43379;48.160;14.036;2023-06-19T09:42:36;28.80;83.00
57552;DHT22;43379;48.160;14.036;2023-06-19T09:45:04;28.80;84.50
57552;DHT22;43379;48.160;14.036;2023-06-19T09:47:43;28.70;85.80
57552;DHT22;43379;48.160;14.036;2023-06-19T09:50:13;28.70;87.20
57552;DHT22;43379;48.160;14.036;2023-06-19T09:52:41;28.80;86.10
57552;DHT22;43379;48.160;14.036;2023-06-19T09:55:08;28.80;86.20
57552;DHT22;43379;48.160;14.036;2023-06-19T09:57:35;28.70;87.70
57552;DHT22;43379;48.160;14.036;2023-06-19T10:00:05;28.70;87.30
57552;DHT22;43379;48.160;14.036;2023-06-19T10:02:43;28.80;85.80
57552;DHT22;43379;48.160;14.036;2023-06-19T10:05:09;28.70;84.20
57552;DHT22;43379;48.160;14.036;2023-06-19T10:07:42;28.50;84.80
57552;DHT22;43379;48.160;14.036;2023-06-19T10:10:22;28.50;84.30
57552;DHT22;43379;48.160;14.036;2023-06-19T10:12:48;28.40;84.00
57552;DHT22;43379;48.160;14.036;2023-06-19T10:15:22;28.20;84.10
57552;DHT22;43379;48.160;14.036;2023-06-19T10:18:01;28.20;85.20
57552;DHT22;43379;48.160;14.036;2023-06-19T10:20:29;28.10;86.20
57552;DHT22;43379;48.160;14.036;2023-06-19T10:23:06;27.90;86.20
57552;DHT22;43379;48.160;14.036;2023-06-19T10:25:37;27.90;86.70
57552;DHT22;43379;48.160;14.036;2023-06-19T10:28:04;28.00;88.40
57552;DHT22;43379;48.160;14.036;2023-06-19T10:30:33;28.00;87.80
57552;DHT22;43379;48.160;14.036;2023-06-19T10:33:00;28.00;87.10
57552;DHT22;43379;48.160;14.036;2023-06-19T10:35:28;28.10;88.70
57552;DHT22;43379;48.160;14.036;2023-06-19T10:37:54;28.10;88.80
57552;DHT22;43379;48.160;14.036;2023-06-19T10:40:20;28.20;89.30
57552;DHT22;43379;48.160;14.036;2023-06-19T10:42:46;28.30;90.20
57552;DHT22;43379;48.160;14.036;2023-06-19T10:45:13;28.40;89.20
57552;DHT22;43379;48.160;14.036;2023-06-19T10:47:41;28.60;88.90
57552;DHT22;43379;48.160;14.036;2023-06-19T10:50:14;28.90;89.00
57552;DHT22;43379;48.160;14.036;2023-06-19T10:52:44;29.10;87.50
57552;DHT22;43379;48.160;14.036;2023-06-19T10:55:11;29.30;88.30
57552;DHT22;43379;48.160;14.036;2023-06-19T10:57:37;29.60;88.20
57552;DHT22;43379;48.160;14.036;2023-06-19T11:00:05;29.80;89.10
57552;DHT22;43379;48.160;14.036;2023-06-19T11:02:40;30.00;84.70
57552;DHT22;43379;48.160;14.036;2023-06-19T11:05:09;30.10;83.30
57552;DHT22;43379;48.160;14.036;2023-06-19T11:07:36;30.20;83.10
57552;DHT22;43379;48.160;14.036;2023-06-19T11:10:03;30.40;82.50
57552;DHT22;43379;48.160;14.036;2023-06-19T11:12:29;30.40;78.60
57552;DHT22;43379;48.160;14.036;2023-06-19T11:14:54;30.30;78.10
57552;DHT22;43379;48.160;14.036;2023-06-19T11:17:20;30.30;78.10
57552;DHT22;43379;48.160;14.036;2023-06-19T11:19:50;30.30;77.90
57552;DHT22;43379;48.160;14.036;2023-06-19T11:22:16;30.40;80.00
57552;DHT22;43379;48.160;14.036;2023-06-19T11:24:45;30.50;80.60
57552;DHT22;43379;48.160;14.036;2023-06-19T11:27:22;30.50;77.60
57552;DHT22;43379;48.160;14.036;2023-06-19T11:29:58;30.60;76.70
57552;DHT22;43379;48.160;14.036;2023-06-19T11:32:37;30.60;75.40
57552;DHT22;43379;48.160;14.036;2023-06-19T11:35:09;30.50;73.80
57552;DHT22;43379;48.160;14.036;2023-06-19T11:37:34;30.50;73.80
57552;DHT22;43379;48.160;14.036;2023-06-19T11:40:01;30.40;74.40
57552;DHT22;43379;48.160;14.036;2023-06-19T11:42:30;30.50;75.10
57552;DHT22;43379;48.160;14.036;2023-06-19T11:45:00;30.40;72.20
57552;DHT22;43379;48.160;14.036;2023-06-19T11:47:30;30.30;68.60
57552;DHT22;43379;48.160;14.036;2023-06-19T11:49:57;30.30;70.10
57552;DHT22;43379;48.160;14.036;2023-06-19T11:52:23;30.30;70.10
57552;DHT22;43379;48.160;14.036;2023-06-19T11:54:48;30.20;70.30
57552;DHT22;43379;48.160;14.036;2023-06-19T11:57:14;30.30;72.30
57552;DHT22;43379;48.160;14.036;2023-06-19T11:59:40;30.40;76.10
57552;DHT22;43379;48.160;14.036;2023-06-19T12:02:07;30.40;77.10
57552;DHT22;43379;48.160;14.036;2023-06-19T12:04:32;30.40;77.10
57552;DHT22;43379;48.160;14.036;2023-06-19T12:06:59;30.40;72.90
57552;DHT22;43379;48.160;14.036;2023-06-19T12:09:25;30.30;71.70
57552;DHT22;43379;48.160;14.036;2023-06-19T12:11:50;30.10;70.70
57552;DHT22;43379;48.160;14.036;2023-06-19T12:14:16;30.00;71.90
57552;DHT22;43379;48.160;14.036;2023-06-19T12:16:45;30.10;77.00
57552;DHT22;43379;48.160;14.036;2023-06-19T12:19:10;30.20;74.60
57552;DHT22;43379;48.160;14.036;2023-06-19T12:21:36;30.20;72.30
57552;DHT22;43379;48.160;14.036;2023-06-19T12:24:02;30.20;72.30
57552;DHT22;43379;48.160;14.036;2023-06-19T12:26:28;30.10;70.90
57552;DHT22;43379;48.160;14.036;2023-06-19T12:28:54;30.10;72.30
57552;DHT22;43379;48.160;14.036;2023-06-19T12:31:19;30.10;71.10
57552;DHT22;43379;48.160;14.036;2023-06-19T12:33:45;30.10;72.00
57552;DHT22;43379;48.160;14.036;2023-06-19T12:36:16;30.10;71.10
57552;DHT22;43379;48.160;14.036;2023-06-19T12:38:42;30.00;69.80
57552;DHT22;43379;48.160;14.036;2023-06-19T12:41:07;29.90;69.70
57552;DHT22;43379;48.160;14.036;2023-06-19T12:43:33;29.90;69.80
57552;DHT22;43379;48.160;14.036;2023-06-19T12:45:59;29.80;70.20
57552;DHT22;43379;48.160;14.036;2023-06-19T12:48:26;29.80;69.90
57552;DHT22;43379;48.160;14.036;2023-06-19T12:50:51;29.90;70.50
57552;DHT22;43379;48.160;14.036;2023-06-19T12:53:17;29.90;72.20
57552;DHT22;43379;48.160;14.036;2023-06-19T12:55:43;29.90;73.70
57552;DHT22;43379;48.160;14.036;2023-06-19T12:58:09;30.00;72.80
57552;DHT22;43379;48.160;14.036;2023-06-19T13:00:36;30.00;73.70
57552;DHT22;43379;48.160;14.036;2023-06-19T13:03:02;30.00;72.10
57552;DHT22;43379;48.160;14.036;2023-06-19T13:05:28;30.00;71.70
57552;DHT22;43379;48.160;14.036;2023-06-19T13:07:53;30.00;72.60
57552;DHT22;43379;48.160;14.036;2023-06-19T13:10:19;30.00;72.70
57552;DHT22;43379;48.160;14.036;2023-06-19T13:12:44;30.00;73.70
57552;DHT22;43379;48.160;14.036;2023-06-19T13:15:11;30.10;73.60
57552;DHT22;43379;48.160;14.036;2023-06-19T13:17:37;30.10;73.60
57552;DHT22;43379;48.160;14.036;2023-06-19T13:20:02;30.10;72.90
57552;DHT22;43379;48.160;14.036;2023-06-19T13:22:30;30.20;73.60
57552;DHT22;43379;48.160;14.036;2023-06-19T13:24:56;30.10;73.00
57552;DHT22;43379;48.160;14.036;2023-06-19T13:27:22;30.20;72.90
57552;DHT22;43379;48.160;14.036;2023-06-19T13:29:47;30.20;73.20
57552;DHT22;43379;48.160;14.036;2023-06-19T13:32:13;30.20;74.20
57552;DHT22;43379;48.160;14.036;2023-06-19T13:34:39;30.20;74.30
57552;DHT22;43379;48.160;14.036;2023-06-19T13:37:05;30.30;74.70
57552;DHT22;43379;48.160;14.036;2023-06-19T13:39:31;30.30;75.20
57552;DHT22;43379;48.160;14.036;2023-06-19T13:41:57;30.30;74.60
57552;DHT22;43379;48.160;14.036;2023-06-19T13:44:25;30.30;74.00
57552;DHT22;43379;48.160;14.036;2023-06-19T13:46:51;30.30;74.60
57552;DHT22;43379;48.160;14.036;2023-06-19T13:49:16;30.30;74.00
57552;DHT22;43379;48.160;14.036;2023-06-19T13:51:42;30.40;73.90
57552;DHT22;43379;48.160;14.036;2023-06-19T13:54:09;30.30;72.20
57552;DHT22;43379;48.160;14.036;2023-06-19T13:56:35;30.30;73.00
57552;DHT22;43379;48.160;14.036;2023-06-19T13:59:02;30.30;71.80
57552;DHT22;43379;48.160;14.036;2023-06-19T14:01:28;30.30;69.80
57552;DHT22;43379;48.160;14.036;2023-06-19T14:03:54;30.20;70.10
57552;DHT22;43379;48.160;14.036;2023-06-19T14:06:19;30.20;71.20
57552;DHT22;43379;48.160;14.036;2023-06-19T14:08:45;30.20;71.40
57552;DHT22;43379;48.160;14.036;2023-06-19T14:11:11;30.20;69.60
57552;DHT22;43379;48.160;14.036;2023-06-19T14:13:37;30.10;67.90
57552;DHT22;43379;48.160;14.036;2023-06-19T14:16:03;30.10;68.00
57552;DHT22;43379;48.160;14.036;2023-06-19T14:18:28;30.10;69.20
57552;DHT22;43379;48.160;14.036;2023-06-19T14:20:54;30.10;69.80
57552;DHT22;43379;48.160;14.036;2023-06-19T14:23:20;30.10;68.40
57552;DHT22;43379;48.160;14.036;2023-06-19T14:25:46;30.10;69.30
57552;DHT22;43379;48.160;14.036;2023-06-19T14:28:12;30.10;66.70
57552;DHT22;43379;48.160;14.036;2023-06-19T14:30:39;30.00;65.90
57552;DHT22;43379;48.160;14.036;2023-06-19T14:33:05;30.00;66.20
57552;DHT22;43379;48.160;14.036;2023-06-19T14:35:31;30.00;66.50
57552;DHT22;43379;48.160;14.036;2023-06-19T14:37:56;30.00;66.50
57552;DHT22;43379;48.160;14.036;2023-06-19T14:40:22;30.00;67.50
57552;DHT22;43379;48.160;14.036;2023-06-19T14:42:48;29.90;67.60
57552;DHT22;43379;48.160;14.036;2023-06-19T14:45:15;29.90;67.90
57552;DHT22;43379;48.160;14.036;2023-06-19T14:47:40;30.00;69.00
57552;DHT22;43379;48.160;14.036;2023-06-19T14:50:06;30.00;69.50
57552;DHT22;43379;48.160;14.036;2023-06-19T14:52:32;30.00;68.80
57552;DHT22;43379;48.160;14.036;2023-06-19T14:54:59;30.00;67.60
57552;DHT22;43379;48.160;14.036;2023-06-19T14:57:25;30.00;67.60
57552;DHT22;43379;48.160;14.036;2023-06-19T14:59:51;30.00;68.50
57552;DHT22;43379;48.160;14.036;2023-06-19T15:02:16;30.00;68.20
57552;DHT22;43379;48.160;14.036;2023-06-19T15:04:42;30.00;68.80
57552;DHT22;43379;48.160;14.036;2023-06-19T15:07:08;30.00;69.70
57552;DHT22;43379;48.160;14.036;2023-06-19T15:09:33;30.00;70.50
57552;DHT22;43379;48.160;14.036;2023-06-19T15:11:59;30.10;71.10
57552;DHT22;43379;48.160;14.036;2023-06-19T15:14:25;30.10;70.70
57552;DHT22;43379;48.160;14.036;2023-06-19T15:16:50;30.10;71.10
57552;DHT22;43379;48.160;14.036;2023-06-19T15:19:16;30.10;70.10